createdAt,value
2022-07-29T00:00:02.479Z,2.50
2022-07-29T00:02:33.014Z,3.13
2022-07-29T00:05:00.109Z,2.20
2022-07-29T00:07:27.118Z,4.27
2022-07-29T00:09:54.138Z,3.20
2022-07-29T00:12:26.364Z,1.93
2022-07-29T00:14:57.839Z,2.23
2022-07-29T00:17:25.945Z,2.80
2022-07-29T00:19:53.317Z,2.10
2022-07-29T00:22:21.271Z,3.87
2022-07-29T00:24:51.209Z,2.50
2022-07-29T00:27:18.974Z,2.50
2022-07-29T00:29:46.006Z,6.00
2022-07-29T00:32:13.077Z,2.27
2022-07-29T00:34:59.286Z,4.47
2022-07-29T00:37:26.523Z,3.50
2022-07-29T00:39:53.448Z,1.90
2022-07-29T00:42:20.866Z,4.00
2022-07-29T00:44:47.756Z,9.10
2022-07-29T00:47:14.737Z,2.17
2022-07-29T00:49:43.505Z,5.30
2022-07-29T00:52:12.657Z,2.00
2022-07-29T00:54:44.380Z,3.83
2022-07-29T00:57:13.457Z,4.13
2022-07-29T00:59:41.508Z,1.93
2022-07-29T01:02:08.474Z,5.30
2022-07-29T01:04:36.428Z,3.03
2022-07-29T01:07:04.508Z,2.13
2022-07-29T01:09:45.282Z,6.77
2022-07-29T01:12:22.476Z,3.50
2022-07-29T01:14:50.956Z,3.33
2022-07-29T01:17:26.689Z,3.27
2022-07-29T01:20:19.752Z,2.60
2022-07-29T01:23:16.499Z,2.70
2022-07-29T01:26:09.162Z,2.57
2022-07-29T01:28:56.833Z,3.60
2022-07-29T01:31:59.563Z,2.30
2022-07-29T01:34:55.810Z,2.90
2022-07-29T01:37:45.410Z,2.90
2022-07-29T01:40:30.578Z,2.53
2022-07-29T01:43:01.401Z,2.60
2022-07-29T01:45:40.302Z,1.90
2022-07-29T01:48:20.766Z,2.73
2022-07-29T01:51:07.138Z,3.17
2022-07-29T01:53:43.419Z,2.77
2022-07-29T01:56:13.110Z,4.97
2022-07-29T01:58:42.751Z,1.90
2022-07-29T02:01:11.938Z,2.83
2022-07-29T02:03:40.204Z,3.13
2022-07-29T02:06:09.971Z,2.17
2022-07-29T02:08:39.478Z,1.93
2022-07-29T02:11:08.015Z,1.63
2022-07-29T02:13:37.010Z,3.13
2022-07-29T02:16:08.070Z,2.43
2022-07-29T02:18:39.011Z,2.93
2022-07-29T02:21:06.311Z,2.37
2022-07-29T02:23:51.693Z,2.47
2022-07-29T02:26:21.072Z,3.70
2022-07-29T02:28:51.193Z,1.90
2022-07-29T02:31:23.384Z,3.30
2022-07-29T02:33:51.449Z,4.83
2022-07-29T02:36:22.545Z,2.37
2022-07-29T02:38:53.066Z,2.50
2022-07-29T02:41:50.001Z,2.07
2022-07-29T02:44:24.565Z,2.60
2022-07-29T02:47:29.422Z,5.43
2022-07-29T02:50:12.667Z,3.50
2022-07-29T02:52:45.455Z,1.80
2022-07-29T02:55:48.222Z,2.57
2022-07-29T02:58:39.130Z,2.93
2022-07-29T03:01:23.519Z,2.13
2022-07-29T03:03:54.064Z,2.73
2022-07-29T03:06:28.158Z,4.60
2022-07-29T03:09:07.834Z,3.37
2022-07-29T03:11:46.146Z,3.53
2022-07-29T03:14:20.382Z,2.80
2022-07-29T03:16:48.396Z,3.37
2022-07-29T03:19:15.726Z,2.80
2022-07-29T03:21:42.699Z,2.97
2022-07-29T03:24:10.745Z,2.43
2022-07-29T03:26:38.274Z,2.40
2022-07-29T03:29:05.303Z,3.00
2022-07-29T03:31:33.519Z,3.17
2022-07-29T03:34:00.761Z,2.27
2022-07-29T03:36:27.863Z,3.67
2022-07-29T03:38:55.659Z,3.10
2022-07-29T03:41:23.904Z,2.50
2022-07-29T03:43:53.051Z,4.07
2022-07-29T03:46:24.446Z,2.30
2022-07-29T03:48:57.478Z,3.47
2022-07-29T03:51:33.737Z,2.03
2022-07-29T03:54:09.924Z,3.10
2022-07-29T03:56:43.354Z,3.30
2022-07-29T03:59:12.562Z,2.40
2022-07-29T04:01:40.783Z,2.90
2022-07-29T04:04:07.943Z,3.13
2022-07-29T04:06:42.803Z,2.30
2022-07-29T04:09:10.826Z,2.40
2022-07-29T04:12:02.037Z,3.10
2022-07-29T04:14:27.938Z,2.30
2022-07-29T04:16:54.840Z,4.00
2022-07-29T04:19:21.790Z,5.90
2022-07-29T04:21:48.732Z,3.50
2022-07-29T04:24:16.017Z,5.07
2022-07-29T04:26:44.601Z,2.60
2022-07-29T04:29:13.058Z,2.97
2022-07-29T04:31:40.001Z,2.63
2022-07-29T04:34:07.067Z,2.40
2022-07-29T04:36:34.032Z,3.80
2022-07-29T04:39:02.109Z,2.13
2022-07-29T04:41:32.775Z,2.60
2022-07-29T04:44:05.887Z,4.40
2022-07-29T04:46:35.046Z,2.40
2022-07-29T04:49:03.377Z,3.67
2022-07-29T04:51:30.387Z,5.90
2022-07-29T04:53:57.330Z,6.23
2022-07-29T04:56:24.945Z,2.60
2022-07-29T04:58:52.047Z,4.87
2022-07-29T05:01:19.428Z,7.20
2022-07-29T05:03:46.582Z,2.47
2022-07-29T05:06:13.851Z,2.30
2022-07-29T05:08:41.896Z,3.47
2022-07-29T05:11:12.234Z,3.20
2022-07-29T05:13:46.396Z,3.47
2022-07-29T05:16:14.963Z,3.93
2022-07-29T05:18:43.069Z,2.30
2022-07-29T05:21:10.129Z,3.77
2022-07-29T05:23:37.032Z,2.60
2022-07-29T05:26:04.015Z,2.47
2022-07-29T05:28:36.013Z,3.77
2022-07-29T05:31:03.377Z,3.40
2022-07-29T05:33:36.047Z,3.23
2022-07-29T05:36:08.148Z,2.87
2022-07-29T05:38:36.530Z,2.83
2022-07-29T05:41:04.007Z,3.00
2022-07-29T05:43:31.752Z,2.20
2022-07-29T05:45:58.913Z,5.33
2022-07-29T05:48:26.313Z,3.17
2022-07-29T05:50:53.372Z,2.40
2022-07-29T05:53:21.070Z,3.23
2022-07-29T05:55:49.780Z,2.30
2022-07-29T05:58:16.943Z,2.53
2022-07-29T06:00:43.929Z,2.33
2022-07-29T06:03:10.908Z,3.47
2022-07-29T06:05:37.815Z,3.30
2022-07-29T06:08:08.536Z,1.70
2022-07-29T06:10:38.559Z,3.50
2022-07-29T06:13:05.579Z,2.93
2022-07-29T06:15:32.725Z,3.33
2022-07-29T06:18:01.708Z,2.67
2022-07-29T06:20:31.439Z,3.57
2022-07-29T06:22:58.931Z,3.00
2022-07-29T06:25:26.092Z,5.17
2022-07-29T06:27:53.374Z,3.70
2022-07-29T06:30:20.397Z,3.90
2022-07-29T06:32:48.217Z,2.27
2022-07-29T06:35:41.376Z,3.17
2022-07-29T06:38:03.823Z,5.93
2022-07-29T06:41:00.870Z,5.03
2022-07-29T06:43:50.132Z,3.50
2022-07-29T06:46:21.184Z,4.83
2022-07-29T06:48:49.004Z,4.40
2022-07-29T06:51:17.277Z,4.10
2022-07-29T06:54:00.462Z,2.20
2022-07-29T06:56:39.380Z,4.20
2022-07-29T06:59:12.053Z,2.70
2022-07-29T07:01:41.747Z,6.13
2022-07-29T07:04:10.081Z,2.97
2022-07-29T07:06:37.495Z,2.53
2022-07-29T07:09:04.729Z,4.60
2022-07-29T07:11:31.743Z,2.53
2022-07-29T07:14:03.124Z,4.97
2022-07-29T07:16:31.818Z,3.07
2022-07-29T07:18:58.902Z,2.07
2022-07-29T07:21:25.873Z,4.80
2022-07-29T07:23:52.780Z,2.40
2022-07-29T07:26:19.746Z,4.60
2022-07-29T07:28:46.641Z,2.30
2022-07-29T07:31:13.719Z,4.20
2022-07-29T07:33:40.847Z,4.67
2022-07-29T07:36:07.790Z,1.90
2022-07-29T07:38:34.916Z,2.93
2022-07-29T07:41:02.194Z,1.83
2022-07-29T07:43:29.103Z,4.60
2022-07-29T07:45:56.179Z,4.37
2022-07-29T07:48:23.157Z,2.70
2022-07-29T07:50:51.488Z,2.87
2022-07-29T07:53:18.572Z,3.33
2022-07-29T07:58:33.071Z,3.00
2022-07-29T08:01:00.182Z,4.73
2022-07-29T08:03:27.189Z,6.17
2022-07-29T08:05:55.194Z,3.80
2022-07-29T08:08:22.361Z,3.67
2022-07-29T08:10:56.746Z,3.30
2022-07-29T08:13:28.716Z,4.73
2022-07-29T08:16:00.827Z,6.50
2022-07-29T08:18:32.238Z,4.77
2022-07-29T08:20:59.820Z,3.37
2022-07-29T08:23:32.966Z,2.47
2022-07-29T08:26:14.805Z,3.40
2022-07-29T08:28:49.599Z,2.43
2022-07-29T08:31:17.594Z,4.73
2022-07-29T08:33:44.605Z,6.40
2022-07-29T08:36:11.546Z,2.87
2022-07-29T08:38:38.648Z,4.50
2022-07-29T08:41:05.691Z,4.30
2022-07-29T08:43:33.079Z,3.70
2022-07-29T08:46:00.226Z,4.50
2022-07-29T08:48:27.179Z,5.10
2022-07-29T08:50:56.892Z,2.70
2022-07-29T08:53:27.974Z,3.27
2022-07-29T08:55:56.083Z,4.20
2022-07-29T08:58:25.115Z,5.17
2022-07-29T09:00:58.042Z,6.93
2022-07-29T09:03:32.092Z,3.50
2022-07-29T09:06:04.244Z,4.30
2022-07-29T09:08:33.817Z,4.00
2022-07-29T09:11:04.158Z,5.50
2022-07-29T09:13:32.641Z,6.53
2022-07-29T09:15:59.546Z,5.73
2022-07-29T09:18:41.559Z,2.50
2022-07-29T09:21:30.801Z,4.50
2022-07-29T09:24:03.032Z,4.90
2022-07-29T09:26:39.941Z,3.40
2022-07-29T09:29:13.623Z,4.60
2022-07-29T09:31:44.865Z,3.27
2022-07-29T09:34:14.001Z,3.03
2022-07-29T09:36:47.240Z,5.90
2022-07-29T09:39:17.688Z,3.77
2022-07-29T09:41:56.738Z,4.57
2022-07-29T09:44:25.113Z,3.30
2022-07-29T09:47:00.205Z,6.73
2022-07-29T09:49:27.593Z,6.10
2022-07-29T09:52:05.942Z,4.73
2022-07-29T09:54:39.638Z,2.90
2022-07-29T09:57:13.534Z,4.10
2022-07-29T09:59:49.947Z,2.63
2022-07-29T10:02:23.558Z,4.77
2022-07-29T10:04:52.762Z,2.90
2022-07-29T10:07:20.477Z,4.20
2022-07-29T10:09:58.525Z,2.73
2022-07-29T10:12:25.760Z,4.57
2022-07-29T10:14:52.884Z,5.37
2022-07-29T10:17:20.262Z,6.90
2022-07-29T10:19:48.151Z,3.40
2022-07-29T10:22:15.141Z,4.40
2022-07-29T10:24:42.240Z,4.23
2022-07-29T10:27:10.415Z,2.40
2022-07-29T10:29:37.420Z,5.70
2022-07-29T10:32:56.373Z,4.10
2022-07-29T10:35:45.124Z,2.70
2022-07-29T10:39:00.867Z,4.70
2022-07-29T10:42:20.386Z,5.67
2022-07-29T10:45:00.296Z,3.00
2022-07-29T10:47:28.400Z,4.03
2022-07-29T10:50:04.913Z,3.43
2022-07-29T10:52:50.328Z,5.30
2022-07-29T10:55:43.182Z,2.67
2022-07-29T10:58:20.882Z,2.83
2022-07-29T11:00:53.790Z,2.60
2022-07-29T11:07:06.559Z,3.27
2022-07-29T11:09:37.507Z,6.63
2022-07-29T11:12:47.838Z,2.73
2022-07-29T11:15:19.767Z,3.93
2022-07-29T11:17:59.493Z,3.17
2022-07-29T11:20:45.764Z,2.43
2022-07-29T11:23:36.698Z,3.63
2022-07-29T11:26:10.880Z,7.13
2022-07-29T11:28:54.384Z,3.67
2022-07-29T11:31:43.738Z,4.50
2022-07-29T11:34:28.200Z,2.93
2022-07-29T11:37:18.003Z,3.53
2022-07-29T11:39:53.883Z,3.50
2022-07-29T11:45:42.466Z,7.00
2022-07-29T11:48:29.198Z,2.70
2022-07-29T11:51:00.654Z,3.73
2022-07-29T11:53:29.078Z,2.90
2022-07-29T11:56:00.819Z,3.50
2022-07-29T11:58:29.489Z,3.97
2022-07-29T12:00:57.867Z,4.47
2022-07-29T12:03:35.420Z,3.63
2022-07-29T12:06:12.267Z,4.20
2022-07-29T12:08:44.660Z,6.90
2022-07-29T12:11:22.810Z,22.07
2022-07-29T12:13:52.475Z,11.73
2022-07-29T12:16:25.945Z,2.87
2022-07-29T12:19:02.903Z,4.33
2022-07-29T12:21:54.067Z,2.63
2022-07-29T12:24:26.719Z,5.27
2022-07-29T12:27:00.341Z,4.63
2022-07-29T12:29:34.503Z,8.23
2022-07-29T12:32:05.500Z,5.37
2022-07-29T12:34:33.382Z,7.27
2022-07-29T12:37:00.538Z,3.60
2022-07-29T12:39:28.921Z,5.60
2022-07-29T12:42:04.148Z,5.03
2022-07-29T12:44:49.839Z,2.60
2022-07-29T12:47:19.305Z,4.00
2022-07-29T12:49:47.678Z,3.57
2022-07-29T12:52:33.481Z,3.83
2022-07-29T12:55:01.847Z,3.87
2022-07-29T12:57:29.554Z,3.67
2022-07-29T13:00:08.750Z,5.77
2022-07-29T13:02:36.100Z,4.50
2022-07-29T13:05:07.181Z,5.30
2022-07-29T13:07:57.164Z,7.77
2022-07-29T13:10:25.909Z,5.33
2022-07-29T13:13:16.258Z,3.40
2022-07-29T13:15:50.411Z,2.57
2022-07-29T13:18:36.978Z,4.70
2022-07-29T13:21:16.571Z,2.53
2022-07-29T13:23:45.906Z,5.20
2022-07-29T13:26:13.415Z,3.30
2022-07-29T13:28:40.897Z,3.20
2022-07-29T13:31:11.577Z,2.57
2022-07-29T13:33:38.554Z,5.30
2022-07-29T13:36:05.796Z,5.33
2022-07-29T13:38:32.718Z,4.00
2022-07-29T13:41:00.009Z,3.20
2022-07-29T13:43:26.905Z,4.03
2022-07-29T13:45:53.949Z,6.67
2022-07-29T13:48:21.526Z,6.37
2022-07-29T13:50:49.081Z,7.53
2022-07-29T13:53:17.617Z,6.67
2022-07-29T13:55:45.266Z,3.27
2022-07-29T13:58:12.203Z,6.90
2022-07-29T14:00:39.184Z,5.23
2022-07-29T14:03:07.305Z,4.63
2022-07-29T14:05:34.285Z,3.63
2022-07-29T14:08:01.252Z,3.30
2022-07-29T14:10:28.260Z,4.47
2022-07-29T14:12:55.336Z,4.53
2022-07-29T14:15:22.359Z,4.67
2022-07-29T14:17:49.306Z,10.80
2022-07-29T14:20:16.613Z,6.90
2022-07-29T14:22:45.080Z,6.97
2022-07-29T14:25:14.981Z,3.40
2022-07-29T14:27:44.250Z,5.60
2022-07-29T14:30:12.325Z,5.90
2022-07-29T14:32:39.222Z,8.20
2022-07-29T14:35:07.740Z,5.37
2022-07-29T14:37:39.729Z,9.47
2022-07-29T14:40:09.727Z,4.37
2022-07-29T14:42:37.971Z,8.77
2022-07-29T14:45:06.947Z,13.47
2022-07-29T14:47:35.249Z,5.80
2022-07-29T14:50:02.782Z,12.63
2022-07-29T14:52:30.152Z,5.60
2022-07-29T14:54:57.276Z,8.40
2022-07-29T14:57:24.207Z,3.83
2022-07-29T14:59:51.744Z,4.03
2022-07-29T15:02:18.789Z,4.27
2022-07-29T15:04:46.981Z,3.63
2022-07-29T15:07:13.961Z,4.93
2022-07-29T15:09:49.841Z,3.20
2022-07-29T15:12:17.436Z,12.17
2022-07-29T15:14:44.371Z,7.63
2022-07-29T15:17:11.408Z,5.73
2022-07-29T15:19:38.465Z,5.60
2022-07-29T15:22:11.739Z,5.03
2022-07-29T15:24:38.703Z,5.33
2022-07-29T15:27:05.805Z,5.73
2022-07-29T15:29:32.851Z,6.27
2022-07-29T15:32:00.549Z,8.73
2022-07-29T15:34:27.812Z,5.93
2022-07-29T15:36:54.818Z,5.87
2022-07-29T15:39:22.814Z,7.57
2022-07-29T15:41:50.398Z,6.23
2022-07-29T15:44:17.634Z,7.40
2022-07-29T15:47:03.571Z,6.20
2022-07-29T15:49:47.607Z,5.73
2022-07-29T15:52:26.156Z,12.70
2022-07-29T15:54:56.282Z,4.30
2022-07-29T15:57:23.851Z,6.00
2022-07-29T15:59:51.336Z,4.00
2022-07-29T16:02:18.540Z,4.57
2022-07-29T16:04:48.074Z,6.50
2022-07-29T16:07:15.845Z,5.90
2022-07-29T16:09:44.839Z,6.80
2022-07-29T16:12:16.519Z,4.40
2022-07-29T16:14:44.487Z,4.60
2022-07-29T16:17:14.320Z,6.50
2022-07-29T16:19:45.895Z,10.93
2022-07-29T16:22:13.165Z,6.00
2022-07-29T16:24:40.524Z,7.60
2022-07-29T16:27:08.132Z,6.63
2022-07-29T16:29:36.917Z,3.80
2022-07-29T16:32:05.170Z,7.40
2022-07-29T16:34:32.224Z,6.37
2022-07-29T16:36:59.651Z,4.17
2022-07-29T16:39:26.793Z,4.47
2022-07-29T16:41:56.953Z,6.93
2022-07-29T16:44:26.525Z,5.27
2022-07-29T16:46:56.162Z,6.40
2022-07-29T16:49:27.291Z,7.43
2022-07-29T16:51:54.570Z,6.00
2022-07-29T16:54:21.551Z,3.63
2022-07-29T16:56:48.507Z,8.57
2022-07-29T16:59:15.480Z,8.43
2022-07-29T17:01:42.446Z,5.40
2022-07-29T17:04:09.806Z,5.57
2022-07-29T17:06:39.754Z,4.60
2022-07-29T17:09:09.300Z,5.30
2022-07-29T17:11:52.726Z,3.33
2022-07-29T17:14:30.505Z,4.73
2022-07-29T17:17:01.615Z,6.67
2022-07-29T17:19:35.587Z,5.80
2022-07-29T17:22:18.703Z,7.97
2022-07-29T17:24:47.746Z,7.00
2022-07-29T17:27:15.053Z,3.23
2022-07-29T17:29:42.235Z,8.77
2022-07-29T17:32:10.579Z,5.33
2022-07-29T17:34:39.765Z,5.53
2022-07-29T17:37:09.308Z,4.90
2022-07-29T17:39:41.229Z,3.53
2022-07-29T17:42:12.018Z,9.53
2022-07-29T17:44:40.051Z,3.97
2022-07-29T17:47:16.091Z,4.67
2022-07-29T17:49:45.080Z,7.70
2022-07-29T17:52:12.055Z,7.40
2022-07-29T17:54:39.018Z,4.80
2022-07-29T17:57:05.953Z,4.83
2022-07-29T17:59:33.114Z,5.73
2022-07-29T18:02:00.104Z,6.37
2022-07-29T18:04:28.581Z,6.83
2022-07-29T18:06:55.942Z,8.90
2022-07-29T18:09:23.197Z,4.57
2022-07-29T18:11:51.102Z,7.68
2022-07-29T18:14:18.068Z,7.47
2022-07-29T18:16:45.054Z,8.00
2022-07-29T18:19:12.217Z,5.47
2022-07-29T18:21:51.046Z,5.20
2022-07-29T18:24:24.506Z,6.57
2022-07-29T18:26:51.458Z,4.60
2022-07-29T18:29:18.384Z,4.90
2022-07-29T18:31:45.344Z,4.73
2022-07-29T18:34:12.326Z,5.53
2022-07-29T18:36:39.249Z,5.20
2022-07-29T18:39:06.177Z,6.00
2022-07-29T18:41:33.461Z,5.57
2022-07-29T18:44:00.850Z,5.50
2022-07-29T18:46:28.233Z,8.20
2022-07-29T18:48:57.244Z,6.27
2022-07-29T18:51:24.273Z,8.70
2022-07-29T18:53:52.419Z,5.93
2022-07-29T18:56:19.387Z,6.03
2022-07-29T18:58:46.375Z,6.00
2022-07-29T19:01:16.696Z,6.80
2022-07-29T19:03:43.838Z,5.70
2022-07-29T19:06:10.799Z,7.67
2022-07-29T19:08:37.790Z,5.63
2022-07-29T19:11:04.874Z,6.90
2022-07-29T19:13:31.791Z,6.63
2022-07-29T19:15:58.745Z,5.57
2022-07-29T19:18:26.055Z,5.23
2022-07-29T19:20:53.626Z,5.33
2022-07-29T19:23:20.638Z,6.67
2022-07-29T19:25:53.433Z,5.10
2022-07-29T19:28:22.049Z,5.63
2022-07-29T19:30:49.552Z,5.17
2022-07-29T19:33:18.790Z,5.73
2022-07-29T19:35:54.368Z,5.53
2022-07-29T19:38:22.280Z,4.93
2022-07-29T19:40:49.356Z,4.90
2022-07-29T19:43:50.752Z,6.00
2022-07-29T19:46:03.724Z,5.10
2022-07-29T19:48:30.755Z,5.00
2022-07-29T19:50:57.734Z,5.87
2022-07-29T19:53:24.680Z,6.07
2022-07-29T19:55:51.926Z,6.20
2022-07-29T19:58:22.520Z,6.60
2022-07-29T20:00:54.284Z,7.80
2022-07-29T20:03:21.482Z,5.40
2022-07-29T20:05:51.317Z,8.97
2022-07-29T20:08:19.110Z,5.90
2022-07-29T20:10:46.282Z,6.67
2022-07-29T20:13:13.327Z,5.93
2022-07-29T20:15:40.363Z,6.27
2022-07-29T20:18:07.458Z,6.20
2022-07-29T20:20:34.392Z,5.80
2022-07-29T20:23:02.451Z,6.70
2022-07-29T20:25:29.714Z,6.20
2022-07-29T20:27:56.675Z,6.67
2022-07-29T20:30:23.923Z,6.50
2022-07-29T20:32:51.109Z,6.67
2022-07-29T20:35:20.232Z,6.00
2022-07-29T20:37:52.489Z,7.17
2022-07-29T20:40:25.493Z,6.57
2022-07-29T20:42:53.658Z,7.20
2022-07-29T20:45:20.749Z,7.40
2022-07-29T20:47:47.689Z,7.30
2022-07-29T20:50:14.935Z,6.63
2022-07-29T20:52:43.293Z,7.10
2022-07-29T20:55:10.760Z,7.70
2022-07-29T20:57:38.983Z,7.00
2022-07-29T21:00:09.067Z,7.30
2022-07-29T21:02:36.629Z,6.43
2022-07-29T21:05:04.863Z,7.87
2022-07-29T21:07:31.895Z,7.63
2022-07-29T21:09:59.010Z,6.87
2022-07-29T21:12:26.343Z,7.67
2022-07-29T21:14:53.426Z,9.40
2022-07-29T21:17:22.568Z,7.70
2022-07-29T21:19:55.422Z,8.30
2022-07-29T21:22:22.735Z,8.47
2022-07-29T21:24:49.941Z,8.77
2022-07-29T21:27:38.304Z,9.53
2022-07-29T21:30:08.082Z,8.77
2022-07-29T21:32:35.058Z,8.20
2022-07-29T21:35:02.057Z,7.87
2022-07-29T21:37:29.068Z,7.70
2022-07-29T21:39:56.080Z,8.47
2022-07-29T21:42:23.206Z,8.50
2022-07-29T21:44:51.558Z,8.20
2022-07-29T21:47:18.528Z,8.87
2022-07-29T21:49:46.484Z,8.37
2022-07-29T21:52:13.570Z,8.33
2022-07-29T21:54:41.902Z,9.20
2022-07-29T21:57:09.498Z,9.20
2022-07-29T21:59:36.648Z,8.97
2022-07-29T22:02:03.695Z,8.70
2022-07-29T22:04:31.353Z,8.63
2022-07-29T22:06:58.989Z,9.37
2022-07-29T22:09:26.638Z,8.83
2022-07-29T22:11:54.231Z,9.27
2022-07-29T22:14:21.412Z,10.87
2022-07-29T22:16:49.033Z,8.73
2022-07-29T22:19:16.065Z,9.53
2022-07-29T22:21:43.027Z,9.50
2022-07-29T22:24:10.600Z,8.87
2022-07-29T22:26:38.538Z,9.20
2022-07-29T22:29:06.527Z,9.20
2022-07-29T22:31:33.831Z,9.43
2022-07-29T22:34:01.005Z,8.60
2022-07-29T22:36:27.935Z,8.33
2022-07-29T22:38:54.903Z,9.47
2022-07-29T22:41:22.084Z,8.80
2022-07-29T22:43:49.315Z,8.63
2022-07-29T22:46:16.475Z,10.93
2022-07-29T22:48:43.587Z,10.90
2022-07-29T22:51:10.673Z,9.50
2022-07-29T22:53:37.747Z,9.73
2022-07-29T22:56:05.031Z,9.77
2022-07-29T22:58:31.958Z,10.60
2022-07-29T23:00:59.025Z,10.90
2022-07-29T23:03:26.092Z,12.13
2022-07-29T23:05:53.036Z,11.73
2022-07-29T23:08:20.226Z,10.67
2022-07-29T23:10:47.181Z,11.77
2022-07-29T23:13:14.549Z,11.67
2022-07-29T23:15:41.861Z,11.20
2022-07-29T23:18:09.038Z,11.90
2022-07-29T23:20:36.403Z,12.33
2022-07-29T23:23:03.418Z,11.40
2022-07-29T23:25:30.471Z,11.73
2022-07-29T23:27:57.489Z,11.77
2022-07-29T23:30:25.097Z,12.73
2022-07-29T23:32:52.412Z,12.37
2022-07-29T23:35:19.427Z,12.87
2022-07-29T23:37:46.499Z,11.27
2022-07-29T23:40:14.843Z,12.17
2022-07-29T23:42:42.874Z,11.63
2022-07-29T23:45:13.972Z,7.43
2022-07-29T23:47:41.845Z,8.30
2022-07-29T23:50:16.110Z,8.53
2022-07-29T23:52:44.644Z,9.47
2022-07-29T23:55:37.545Z,11.67
2022-07-29T23:58:00.227Z,12.97
